Time;durP1;ratioP1;P1;durP2;ratioP2;P2;SDS_P1;SDS_P2;PMS_P1;PMS_P2;Temp;Humidity;BMP_temperature;BMP_pressure;BME280_temperature;BME280_humidity;BME280_pressure;Samples;Min_cycle;Max_cycle;Signal;HPM_P1;HPM_P2
2022/01/26 00:20:40;;;;;;;;;;;-5.00;93.40;;;;;;4865627;29;19957;-96
2022/01/26 00:39:46;;;;;;;;;;;-5.20;93.90;;;;;;4918359;29;20023;-95
2022/01/26 00:42:30;;;;;;;;;;;;;;;;;;;;;
2022/01/26 00:45:33;;;;;;;;;;;-5.20;94.20;;;;;;4899982;29;19924;-95
2022/01/26 00:48:02;;;;;;;;;;;-5.20;94.50;;;;;;4902676;29;19923;-95
2022/01/26 00:50:32;;;;;;;;;;;-5.10;94.60;;;;;;4886224;29;19911;-95
2022/01/26 00:56:05;;;;;;;;;;;-5.00;94.50;;;;;;5062336;23;19917;-95
2022/01/26 00:58:45;;;;;;;;;;;-5.00;94.40;;;;;;5000840;28;19924;-95
2022/01/26 01:01:15;;;;;;;;;;;-5.00;94.30;;;;;;4996744;28;20320;-95
2022/01/26 01:03:57;;;;;;;;;;;-5.00;94.30;;;;;;4995473;28;19921;-95
2022/01/26 01:06:27;;;;;;;;;;;-5.00;94.50;;;;;;4994991;28;20353;-95
2022/01/26 01:08:57;;;;;;;;;;;-4.90;94.50;;;;;;4994704;28;19955;-94
2022/01/26 01:11:27;;;;;;;;;;;-4.90;94.40;;;;;;4995238;28;19901;-95
2022/01/26 01:13:57;;;;;;;;;;;-4.90;94.50;;;;;;4996123;28;19910;-95
2022/01/26 01:16:24;;;;;;;;;;;-4.80;94.70;;;;;;4996029;28;19917;-95
2022/01/26 01:19:12;;;;;;;;;;;-4.70;94.50;;;;;;4997371;28;19917;-95
2022/01/26 01:24:55;;;;;;;;;;;-4.70;94.20;;;;;;5011466;28;19959;-95
2022/01/26 01:30:06;;;;;;;;;;;-4.70;93.90;;;;;;5013241;28;19917;-95
2022/01/26 01:32:40;;;;;;;;;;;-4.80;93.90;;;;;;4995941;28;20345;-95
2022/01/26 01:41:33;;;;;;;;;;;-4.90;94.40;;;;;;4934271;29;20388;-95
2022/01/26 01:44:06;;;;;;;;;;;-4.90;94.80;;;;;;4951523;28;19922;-95
2022/01/26 01:46:33;;;;;;;;;;;-4.80;94.90;;;;;;4995813;28;19924;-95
2022/01/26 01:49:05;;;;;;;;;;;-4.80;95.00;;;;;;4996537;28;19916;-95
2022/01/26 01:51:48;;;;;;;;;;;-4.80;94.90;;;;;;4995245;28;19910;-95
2022/01/26 01:54:40;;;;;;;;;;;-4.80;94.90;;;;;;4995462;28;19933;-96
2022/01/26 01:57:05;;;;;;;;;;;-4.80;95.10;;;;;;5012486;28;19977;-96
2022/01/26 01:59:32;;;;;;;;;;;-4.80;95.00;;;;;;4979125;28;19914;-94
2022/01/26 02:05:06;;;;;;;;;;;-4.80;95.10;;;;;;5013540;28;19921;-95
2022/01/26 02:10:37;;;;;;;;;;;-4.70;95.10;;;;;;5014839;28;20302;-95
2022/01/26 02:16:18;;;;;;;;;;;-4.60;95.30;;;;;;5016167;28;19938;-95
2022/01/26 02:56:44;;;;;;;;;;;-4.30;95.10;;;;;;5013623;28;19972;-94
2022/01/26 03:02:19;;;;;;;;;;;-4.30;95.30;;;;;;5014708;28;20052;-95
2022/01/26 03:04:58;;;;;;;;;;;-4.30;95.50;;;;;;5011882;28;19914;-95
2022/01/26 03:07:38;;;;;;;;;;;-4.20;95.40;;;;;;4996366;28;20357;-95
2022/01/26 03:10:29;;;;;;;;;;;-4.20;95.40;;;;;;4995795;28;20028;-95
2022/01/26 03:13:09;;;;;;;;;;;-4.20;95.40;;;;;;4935623;29;19911;-95
2022/01/26 03:21:48;;;;;;;;;;;-4.00;95.70;;;;;;5014781;28;19960;-95
2022/01/26 03:33:52;;;;;;;;;;;-3.80;94.90;;;;;;4933302;29;20042;-95
2022/01/26 03:39:18;;;;;;;;;;;-3.90;95.10;;;;;;5012395;28;19973;-95
2022/01/26 03:44:53;;;;;;;;;;;-3.90;95.20;;;;;;5011358;28;19925;-95
2022/01/26 03:47:19;;;;;;;;;;;-3.90;95.30;;;;;;4993654;28;20009;-95
2022/01/26 03:49:47;;;;;;;;;;;-3.90;95.30;;;;;;4995648;28;19909;-95
2022/01/26 03:52:48;;;;;;;;;;;-3.90;95.30;;;;;;4997675;28;20261;-95
2022/01/26 03:58:47;;;;;;;;;;;-3.80;95.40;;;;;;5009890;28;19929;-95
2022/01/26 04:08:15;;;;;;;;;;;-3.70;95.40;;;;;;5010975;28;20289;-96
2022/01/26 04:14:30;;;;;;;;;;;-3.70;95.10;;;;;;4990745;28;20046;-95
2022/01/26 04:20:15;;;;;;;;;;;-3.80;95.50;;;;;;4992709;28;19994;-95
2022/01/26 04:26:25;;;;;;;;;;;-3.70;95.60;;;;;;4937215;28;19922;-95
2022/01/26 04:31:56;;;;;;;;;;;-3.80;95.60;;;;;;4941558;29;20341;-95
2022/01/26 04:37:38;;;;;;;;;;;-3.80;95.80;;;;;;4974967;29;19978;-96
2022/01/26 04:43:49;;;;;;;;;;;;;;;;;;;;;
2022/01/26 04:46:29;;;;;;;;;;;-3.70;96.20;;;;;;4953546;29;19943;-95
2022/01/26 04:48:54;;;;;;;;;;;-3.70;95.90;;;;;;4937070;29;19911;-94
2022/01/26 04:51:22;;;;;;;;;;;-3.70;96.00;;;;;;4953515;29;19918;-95
2022/01/26 05:03:34;;;;;;;;;;;-3.60;96.00;;;;;;4935569;28;19930;-95
2022/01/26 05:06:00;;;;;;;;;;;-3.50;95.90;;;;;;4934603;29;19922;-96
2022/01/26 05:08:51;;;;;;;;;;;-3.50;95.90;;;;;;4935330;29;19915;-95
2022/01/26 05:14:26;;;;;;;;;;;-3.50;96.00;;;;;;4935154;29;19998;-95
2022/01/26 05:20:10;;;;;;;;;;;-3.40;96.20;;;;;;4935675;29;20041;-95
2022/01/26 05:29:33;;;;;;;;;;;;;;;;;;;;;
2022/01/26 05:41:47;;;;;;;;;;;-3.10;95.70;;;;;;4900228;29;20041;-96
2022/01/26 05:47:25;;;;;;;;;;;-3.00;95.90;;;;;;4960117;29;19939;-96
2022/01/26 06:16:07;;;;;;;;;;;;;;;;;;;;;
2022/01/26 13:49:51;;;;;;;;;;;-0.90;96.00;;;;;;5001921;28;19926;-95
2022/01/26 13:58:54;;;;;;;;;;;-0.80;95.70;;;;;;4976862;28;19914;-95
2022/01/26 14:01:25;;;;;;;;;;;-0.80;95.80;;;;;;4985684;28;19910;-96
2022/01/26 14:03:55;;;;;;;;;;;-0.70;95.90;;;;;;4984947;28;20000;-95
2022/01/26 14:06:24;;;;;;;;;;;-0.70;95.90;;;;;;4969494;28;19937;-96
2022/01/26 14:09:07;;;;;;;;;;;-0.70;95.50;;;;;;5004520;28;19916;-96
2022/01/26 14:11:39;;;;;;;;;;;-0.70;95.50;;;;;;4981463;28;20016;-96
2022/01/26 14:14:11;;;;;;;;;;;-0.70;95.70;;;;;;4988141;28;19909;-95
2022/01/26 14:16:45;;;;;;;;;;;-0.70;95.40;;;;;;5003238;28;19910;-96
2022/01/26 14:27:24;;;;;;;;;;;-0.80;95.90;;;;;;5004263;28;20389;-95
2022/01/26 14:30:02;;;;;;;;;;;-0.90;96.20;;;;;;4969702;28;19918;-94
2022/01/26 14:32:58;;;;;;;;;;;-0.90;96.10;;;;;;4985981;28;20326;-95
2022/01/26 14:40:51;;;;;;;;;;;-0.90;96.30;;;;;;4985149;28;19929;-96
2022/01/26 15:35:27;;;;;;;;;;;-0.70;96.40;;;;;;4887111;29;19967;-95
2022/01/26 15:41:23;;;;;;;;;;;-0.70;96.60;;;;;;4925908;29;19917;-94
2022/01/26 15:44:06;;;;;;;;;;;-0.70;96.80;;;;;;4994622;28;19980;-95
2022/01/26 15:52:47;;;;;;;;;;;-0.80;96.70;;;;;;5003625;28;19941;-96
2022/01/26 15:58:15;;;;;;;;;;;-0.80;97.10;;;;;;4997476;28;19960;-96
2022/01/26 18:15:37;;;;;;;;;;;-0.80;97.40;;;;;;4869362;29;19969;-96
2022/01/26 18:32:59;;;;;;;;;;;-0.80;96.80;;;;;;4961009;29;20385;-94
2022/01/26 18:49:32;;;;;;;;;;;-0.90;96.80;;;;;;4969771;29;19911;-95
2022/01/26 18:52:00;;;;;;;;;;;-0.90;96.50;;;;;;4946271;29;20049;-94
2022/01/26 18:54:27;;;;;;;;;;;-0.90;96.50;;;;;;4947472;29;20005;-93
2022/01/26 18:56:53;;;;;;;;;;;-0.80;96.20;;;;;;4943256;29;19910;-93
2022/01/26 18:59:27;;;;;;;;;;;-0.90;96.30;;;;;;4943810;29;19910;-93
2022/01/26 19:01:54;;;;;;;;;;;-0.90;96.20;;;;;;4943527;29;20250;-95
2022/01/26 19:04:31;;;;;;;;;;;-0.90;96.00;;;;;;4942914;29;19964;-96
2022/01/26 19:07:01;;;;;;;;;;;-1.00;95.90;;;;;;4943164;29;19915;-95
2022/01/26 19:09:29;;;;;;;;;;;-1.00;96.30;;;;;;4960758;29;19914;-95
2022/01/26 19:11:56;;;;;;;;;;;-1.10;96.30;;;;;;4942874;29;19910;-95
2022/01/26 19:14:25;;;;;;;;;;;-1.10;96.30;;;;;;4942800;29;19933;-95
2022/01/26 19:17:07;;;;;;;;;;;-1.10;96.30;;;;;;4942721;29;20266;-95
2022/01/26 19:20:04;;;;;;;;;;;-1.00;96.60;;;;;;4942778;29;19958;-95
2022/01/26 19:22:56;;;;;;;;;;;-1.00;96.50;;;;;;4942883;29;19979;-95
2022/01/26 19:25:30;;;;;;;;;;;-1.00;96.40;;;;;;4958987;29;19922;-94
2022/01/26 19:28:11;;;;;;;;;;;-1.00;96.40;;;;;;4959974;29;19934;-95
2022/01/26 19:51:28;;;;;;;;;;;-1.10;95.80;;;;;;4959582;29;20050;-94
2022/01/26 19:53:53;;;;;;;;;;;-1.10;96.20;;;;;;4957715;29;19954;-96
2022/01/26 19:56:19;;;;;;;;;;;-1.10;96.30;;;;;;4959263;29;19918;-95
2022/01/26 19:58:45;;;;;;;;;;;-1.10;96.20;;;;;;4958015;29;19910;-95
2022/01/26 20:01:10;;;;;;;;;;;-1.10;96.30;;;;;;4957759;29;19911;-95
2022/01/26 20:03:36;;;;;;;;;;;-1.10;96.30;;;;;;4957302;28;19982;-96
2022/01/26 20:06:06;;;;;;;;;;;-1.10;96.30;;;;;;4957993;29;20334;-94
2022/01/26 20:08:38;;;;;;;;;;;-1.10;96.50;;;;;;4957866;29;19966;-94
2022/01/26 20:11:10;;;;;;;;;;;-1.10;96.10;;;;;;4958429;29;20005;-95
2022/01/26 20:13:40;;;;;;;;;;;-1.10;96.10;;;;;;4958191;29;19957;-95
2022/01/26 20:16:06;;;;;;;;;;;-1.10;96.30;;;;;;4957621;29;19980;-95
2022/01/26 20:18:32;;;;;;;;;;;-1.20;96.50;;;;;;4958355;29;19915;-95
2022/01/26 20:20:59;;;;;;;;;;;-1.20;96.60;;;;;;4957759;29;19915;-95
2022/01/26 20:23:27;;;;;;;;;;;-1.10;96.60;;;;;;4957980;28;19930;-96
2022/01/26 20:25:59;;;;;;;;;;;-1.10;96.40;;;;;;4958158;29;19946;-96
2022/01/26 20:31:28;;;;;;;;;;;-1.10;96.60;;;;;;4958529;29;19933;-96
2022/01/26 20:33:54;;;;;;;;;;;-1.00;96.80;;;;;;4957148;29;20001;-95
2022/01/26 20:36:28;;;;;;;;;;;-1.00;96.90;;;;;;4957453;29;19910;-95
2022/01/26 20:38:54;;;;;;;;;;;-0.90;96.90;;;;;;4957602;29;20425;-95
2022/01/26 20:41:19;;;;;;;;;;;-0.80;96.30;;;;;;4957569;29;19914;-95
2022/01/26 20:43:47;;;;;;;;;;;-0.80;95.90;;;;;;4957781;29;19914;-95
2022/01/26 20:46:15;;;;;;;;;;;-0.70;96.10;;;;;;4957558;28;19961;-95
2022/01/26 20:48:41;;;;;;;;;;;-0.70;95.50;;;;;;4957499;29;19993;-94
2022/01/26 20:51:07;;;;;;;;;;;-0.70;95.70;;;;;;4957074;29;19954;-95
2022/01/26 20:53:33;;;;;;;;;;;-0.70;95.10;;;;;;4957265;29;19957;-95
2022/01/26 20:55:58;;;;;;;;;;;-0.70;94.60;;;;;;4957116;29;19910;-96
2022/01/26 20:58:27;;;;;;;;;;;-0.70;94.60;;;;;;4957185;29;19921;-95
2022/01/26 21:00:55;;;;;;;;;;;-0.70;93.50;;;;;;4957484;29;19946;-95
2022/01/26 21:03:22;;;;;;;;;;;-0.70;94.00;;;;;;4957063;29;19910;-95
2022/01/26 21:05:49;;;;;;;;;;;-0.70;94.20;;;;;;4957699;29;19918;-95
2022/01/26 21:08:16;;;;;;;;;;;-0.70;94.20;;;;;;4957296;29;20373;-96
2022/01/26 21:10:42;;;;;;;;;;;-0.70;93.60;;;;;;4956405;29;19942;-96
2022/01/26 21:13:08;;;;;;;;;;;-0.70;94.30;;;;;;4957083;29;19911;-96
2022/01/26 21:15:41;;;;;;;;;;;-0.60;93.10;;;;;;4957306;28;19966;-95
2022/01/26 21:18:07;;;;;;;;;;;-0.60;92.80;;;;;;4960506;29;19915;-94
2022/01/26 21:20:32;;;;;;;;;;;-0.60;92.60;;;;;;4961414;29;19918;-95
2022/01/26 21:22:59;;;;;;;;;;;-0.60;93.90;;;;;;4962060;28;19911;-95
2022/01/26 21:25:25;;;;;;;;;;;-0.60;93.80;;;;;;4964076;28;19918;-93
2022/01/26 21:27:51;;;;;;;;;;;-0.50;93.10;;;;;;4963275;28;19977;-94
2022/01/26 21:30:16;;;;;;;;;;;-0.60;90.90;;;;;;4964242;28;19952;-96
2022/01/26 21:32:42;;;;;;;;;;;-0.60;92.90;;;;;;4963387;28;19910;-95
2022/01/26 21:35:08;;;;;;;;;;;-0.60;92.90;;;;;;4963691;28;19910;-96
2022/01/26 21:37:34;;;;;;;;;;;-0.70;92.30;;;;;;4963351;28;19914;-95
2022/01/26 21:40:02;;;;;;;;;;;-0.70;92.20;;;;;;4963464;28;19918;-95
2022/01/26 21:42:28;;;;;;;;;;;-0.70;92.90;;;;;;4963389;28;19914;-95
2022/01/26 21:44:53;;;;;;;;;;;-0.80;93.00;;;;;;4980689;28;19918;-96
2022/01/26 21:47:19;;;;;;;;;;;-0.80;93.20;;;;;;4963466;28;20350;-96
2022/01/26 21:49:48;;;;;;;;;;;-0.80;93.00;;;;;;4963718;28;20273;-95
2022/01/26 21:52:14;;;;;;;;;;;-0.90;93.50;;;;;;4963268;28;19910;-94
2022/01/26 21:54:40;;;;;;;;;;;-0.80;94.00;;;;;;4966827;28;20001;-94
2022/01/26 21:57:08;;;;;;;;;;;-0.80;94.00;;;;;;4968136;28;19938;-95
2022/01/26 21:59:34;;;;;;;;;;;-0.80;93.60;;;;;;4969887;28;19914;-94
2022/01/26 22:02:02;;;;;;;;;;;-0.80;94.00;;;;;;4964017;28;19910;-96
2022/01/26 22:04:31;;;;;;;;;;;-0.80;93.70;;;;;;4964242;28;19918;-95
2022/01/26 22:06:56;;;;;;;;;;;-0.80;94.00;;;;;;4964860;28;19918;-95
2022/01/26 22:09:24;;;;;;;;;;;-0.90;94.00;;;;;;4964213;28;20350;-95
2022/01/26 22:11:50;;;;;;;;;;;-0.90;93.80;;;;;;4963089;28;20493;-95
2022/01/26 22:14:16;;;;;;;;;;;-0.90;94.20;;;;;;4963387;28;19966;-95
2022/01/26 22:16:44;;;;;;;;;;;-1.00;94.20;;;;;;4980888;28;19986;-95
2022/01/26 22:19:11;;;;;;;;;;;-0.90;94.70;;;;;;4963491;28;20305;-95
2022/01/26 22:21:37;;;;;;;;;;;-0.90;95.00;;;;;;4963604;28;19914;-95
2022/01/26 22:24:06;;;;;;;;;;;-0.80;94.90;;;;;;4962984;28;19922;-95
2022/01/26 22:26:34;;;;;;;;;;;-0.70;94.50;;;;;;4962986;28;19910;-94
2022/01/26 22:29:03;;;;;;;;;;;-0.70;94.50;;;;;;4963113;28;19910;-95
2022/01/26 22:31:31;;;;;;;;;;;-0.70;94.10;;;;;;4963199;28;20333;-94
2022/01/26 22:33:59;;;;;;;;;;;-0.70;94.50;;;;;;4962801;28;19911;-95
2022/01/26 22:36:25;;;;;;;;;;;-0.60;94.70;;;;;;4962512;28;20016;-96
2022/01/26 22:38:51;;;;;;;;;;;-0.60;94.60;;;;;;4962924;28;19917;-96
2022/01/26 22:41:17;;;;;;;;;;;-0.60;94.20;;;;;;4963355;28;19910;-94
2022/01/26 22:43:43;;;;;;;;;;;-0.60;94.30;;;;;;4963474;28;20265;-95
2022/01/26 22:46:09;;;;;;;;;;;-0.60;94.30;;;;;;4962855;28;19917;-95
2022/01/26 22:48:37;;;;;;;;;;;-0.60;94.20;;;;;;4963388;28;20004;-95
2022/01/26 22:51:04;;;;;;;;;;;-0.60;94.60;;;;;;4979375;28;19965;-95
2022/01/26 22:53:29;;;;;;;;;;;-0.60;94.80;;;;;;4962147;28;19958;-96
2022/01/26 22:56:01;;;;;;;;;;;-0.50;94.90;;;;;;4963260;28;19917;-96
2022/01/26 22:58:27;;;;;;;;;;;-0.40;95.00;;;;;;4962000;28;19910;-95
2022/01/26 23:01:40;;;;;;;;;;;-0.40;94.90;;;;;;4961833;28;19982;-95
2022/01/26 23:03:39;;;;;;;;;;;-0.30;94.90;;;;;;4978608;28;19973;-95
2022/01/26 23:08:51;;;;;;;;;;;-0.10;94.70;;;;;;4979333;28;19917;-95
2022/01/26 23:11:18;;;;;;;;;;;0.00;94.70;;;;;;4962012;28;19914;-96
2022/01/26 23:13:44;;;;;;;;;;;0.10;94.60;;;;;;4962216;28;19910;-94
2022/01/26 23:19:15;;;;;;;;;;;0.20;94.10;;;;;;4978873;28;20329;-95
2022/01/26 23:24:49;;;;;;;;;;;0.30;93.60;;;;;;4977267;28;19950;-95
2022/01/26 23:27:26;;;;;;;;;;;0.20;93.00;;;;;;4962117;28;19914;-94
2022/01/26 23:30:04;;;;;;;;;;;0.10;92.70;;;;;;4961824;28;19910;-95
2022/01/26 23:32:59;;;;;;;;;;;0.00;92.40;;;;;;4961777;28;19910;-96
2022/01/26 23:35:39;;;;;;;;;;;-0.20;92.90;;;;;;4978652;28;19921;-94
